sensor_id;sensor_type;location;lat;lon;timestamp;pressure;altitude;pressure_sealevel;temperature;humidity
71299;BME280;59083;47.974;21.722;2023-02-18T00:01:11;100408.09;;;7.72;95.21
71299;BME280;59083;47.974;21.722;2023-02-18T00:04:13;100410.09;;;7.78;95.13
71299;BME280;59083;47.974;21.722;2023-02-18T00:07:14;100402.97;;;7.79;95.02
71299;BME280;59083;47.974;21.722;2023-02-18T00:10:16;100414.41;;;7.79;94.56
71299;BME280;59083;47.974;21.722;2023-02-18T00:13:17;100414.72;;;7.76;95.16
71299;BME280;59083;47.974;21.722;2023-02-18T00:16:19;100417.38;;;7.76;95.52
71299;BME280;59083;47.974;21.722;2023-02-18T00:19:20;100425.69;;;7.73;95.46
71299;BME280;59083;47.974;21.722;2023-02-18T00:22:22;100426.00;;;7.70;95.94
71299;BME280;59083;47.974;21.722;2023-02-18T00:25:24;100435.62;;;7.63;96.15
71299;BME280;59083;47.974;21.722;2023-02-18T00:28:25;100444.06;;;7.59;96.48
71299;BME280;59083;47.974;21.722;2023-02-18T00:31:31;100429.97;;;7.58;96.66
71299;BME280;59083;47.974;21.722;2023-02-18T00:34:34;100429.00;;;7.59;96.85
71299;BME280;59083;47.974;21.722;2023-02-18T00:37:37;100409.44;;;7.60;96.73
71299;BME280;59083;47.974;21.722;2023-02-18T00:40:39;100402.78;;;7.64;96.45
71299;BME280;59083;47.974;21.722;2023-02-18T00:43:42;100382.72;;;7.70;96.27
71299;BME280;59083;47.974;21.722;2023-02-18T00:46:44;100382.56;;;7.71;96.28
71299;BME280;59083;47.974;21.722;2023-02-18T00:49:47;100362.19;;;7.64;96.42
71299;BME280;59083;47.974;21.722;2023-02-18T00:52:49;100369.66;;;7.68;96.52
71299;BME280;59083;47.974;21.722;2023-02-18T00:55:50;100373.81;;;7.63;96.88
71299;BME280;59083;47.974;21.722;2023-02-18T00:58:51;100379.59;;;7.58;97.27
71299;BME280;59083;47.974;21.722;2023-02-18T01:01:52;100414.25;;;7.57;97.37
71299;BME280;59083;47.974;21.722;2023-02-18T01:04:54;100404.66;;;7.56;97.47
71299;BME280;59083;47.974;21.722;2023-02-18T01:07:55;100397.00;;;7.53;97.95
71299;BME280;59083;47.974;21.722;2023-02-18T01:10:58;100396.84;;;7.54;97.90
71299;BME280;59083;47.974;21.722;2023-02-18T01:13:59;100391.91;;;7.51;97.90
71299;BME280;59083;47.974;21.722;2023-02-18T01:17:03;100381.09;;;7.53;98.18
71299;BME280;59083;47.974;21.722;2023-02-18T01:20:05;100379.28;;;7.53;98.38
71299;BME280;59083;47.974;21.722;2023-02-18T01:23:09;100383.94;;;7.51;98.66
71299;BME280;59083;47.974;21.722;2023-02-18T01:26:11;100378.44;;;7.53;98.70
71299;BME280;59083;47.974;21.722;2023-02-18T01:29:12;100374.97;;;7.52;98.78
71299;BME280;59083;47.974;21.722;2023-02-18T01:32:14;100350.09;;;7.53;98.76
71299;BME280;59083;47.974;21.722;2023-02-18T01:35:18;100348.13;;;7.55;98.73
71299;BME280;59083;47.974;21.722;2023-02-18T01:38:19;100353.09;;;7.58;98.83
71299;BME280;59083;47.974;21.722;2023-02-18T01:41:21;100351.09;;;7.60;98.98
71299;BME280;59083;47.974;21.722;2023-02-18T01:44:26;100333.06;;;7.56;99.12
71299;BME280;59083;47.974;21.722;2023-02-18T01:47:28;100328.91;;;7.53;99.25
71299;BME280;59083;47.974;21.722;2023-02-18T01:50:30;100327.59;;;7.49;99.43
71299;BME280;59083;47.974;21.722;2023-02-18T01:53:46;100322.63;;;7.46;99.91
71299;BME280;59083;47.974;21.722;2023-02-18T01:56:53;100313.84;;;7.37;100.00
71299;BME280;59083;47.974;21.722;2023-02-18T02:00:00;100315.84;;;7.35;100.00
71299;BME280;59083;47.974;21.722;2023-02-18T02:03:04;100311.72;;;7.33;100.00
71299;BME280;59083;47.974;21.722;2023-02-18T02:06:14;100301.13;;;7.33;100.00
71299;BME280;59083;47.974;21.722;2023-02-18T02:09:18;100299.78;;;7.45;100.00
71299;BME280;59083;47.974;21.722;2023-02-18T02:15:43;100279.88;;;7.41;100.00
71299;BME280;59083;47.974;21.722;2023-02-18T02:25:35;100259.28;;;7.59;100.00
71299;BME280;59083;47.974;21.722;2023-02-18T02:36:22;100262.25;;;8.26;100.00
71299;BME280;59083;47.974;21.722;2023-02-18T02:46:26;100261.97;;;8.75;100.00
71299;BME280;59083;47.974;21.722;2023-02-18T02:52:43;100275.38;;;8.96;99.10
71299;BME280;59083;47.974;21.722;2023-02-18T02:55:46;100281.94;;;9.08;98.68
71299;BME280;59083;47.974;21.722;2023-02-18T02:58:59;100281.59;;;9.11;98.34
71299;BME280;59083;47.974;21.722;2023-02-18T03:05:48;100280.56;;;9.12;98.21
71299;BME280;59083;47.974;21.722;2023-02-18T03:12:40;100285.97;;;9.19;97.33
71299;BME280;59083;47.974;21.722;2023-02-18T03:15:55;100291.00;;;9.13;97.55
71299;BME280;59083;47.974;21.722;2023-02-18T03:22:32;100284.25;;;9.11;97.73
71299;BME280;59083;47.974;21.722;2023-02-18T03:25:36;100278.00;;;9.04;98.10
71299;BME280;59083;47.974;21.722;2023-02-18T03:28:38;100284.19;;;8.96;98.55
71299;BME280;59083;47.974;21.722;2023-02-18T03:31:42;100284.19;;;8.96;98.65
71299;BME280;59083;47.974;21.722;2023-02-18T03:34:48;100281.53;;;8.96;98.68
71299;BME280;59083;47.974;21.722;2023-02-18T03:38:00;100291.00;;;8.99;98.58
71299;BME280;59083;47.974;21.722;2023-02-18T03:41:04;100290.34;;;8.97;98.58
71299;BME280;59083;47.974;21.722;2023-02-18T03:44:07;100286.69;;;8.98;98.57
71299;BME280;59083;47.974;21.722;2023-02-18T03:47:09;100293.38;;;8.94;98.64
71299;BME280;59083;47.974;21.722;2023-02-18T03:50:11;100307.66;;;8.93;98.77
71299;BME280;59083;47.974;21.722;2023-02-18T03:53:12;100306.00;;;8.92;98.86
71299;BME280;59083;47.974;21.722;2023-02-18T03:56:15;100304.00;;;8.94;98.62
71299;BME280;59083;47.974;21.722;2023-02-18T03:59:16;100293.03;;;8.89;98.78
71299;BME280;59083;47.974;21.722;2023-02-18T04:02:17;100291.94;;;8.83;99.14
71299;BME280;59083;47.974;21.722;2023-02-18T04:05:19;100308.69;;;8.84;99.28
71299;BME280;59083;47.974;21.722;2023-02-18T04:08:20;100304.72;;;8.88;99.08
71299;BME280;59083;47.974;21.722;2023-02-18T04:11:21;100312.31;;;8.91;99.08
71299;BME280;59083;47.974;21.722;2023-02-18T04:14:22;100314.63;;;8.94;98.91
71299;BME280;59083;47.974;21.722;2023-02-18T04:17:24;100324.19;;;9.03;98.66
71299;BME280;59083;47.974;21.722;2023-02-18T04:20:25;100331.50;;;9.01;98.70
71299;BME280;59083;47.974;21.722;2023-02-18T04:23:26;100329.84;;;9.00;98.87
71299;BME280;59083;47.974;21.722;2023-02-18T04:26:28;100333.53;;;8.99;98.99
71299;BME280;59083;47.974;21.722;2023-02-18T04:29:29;100331.16;;;9.04;98.80
71299;BME280;59083;47.974;21.722;2023-02-18T04:32:30;100335.63;;;9.03;99.03
71299;BME280;59083;47.974;21.722;2023-02-18T04:35:32;100337.28;;;9.04;98.88
71299;BME280;59083;47.974;21.722;2023-02-18T04:38:33;100327.53;;;8.97;99.42
71299;BME280;59083;47.974;21.722;2023-02-18T04:41:34;100335.53;;;8.97;99.60
71299;BME280;59083;47.974;21.722;2023-02-18T04:44:36;100344.16;;;8.99;99.58
71299;BME280;59083;47.974;21.722;2023-02-18T04:47:38;100336.81;;;9.01;99.41
71299;BME280;59083;47.974;21.722;2023-02-18T04:50:39;100331.97;;;9.04;99.29
71299;BME280;59083;47.974;21.722;2023-02-18T04:53:40;100335.16;;;9.00;99.62
71299;BME280;59083;47.974;21.722;2023-02-18T04:56:41;100333.16;;;9.02;99.72
71299;BME280;59083;47.974;21.722;2023-02-18T04:59:43;100333.16;;;9.02;99.92
71299;BME280;59083;47.974;21.722;2023-02-18T05:02:44;100337.88;;;8.92;100.00
71299;BME280;59083;47.974;21.722;2023-02-18T05:05:46;100327.59;;;8.89;100.00
71299;BME280;59083;47.974;21.722;2023-02-18T05:08:47;100324.59;;;8.92;100.00
71299;BME280;59083;47.974;21.722;2023-02-18T05:11:48;100323.47;;;8.86;100.00
71299;BME280;59083;47.974;21.722;2023-02-18T05:14:49;100312.72;;;8.80;100.00
71299;BME280;59083;47.974;21.722;2023-02-18T05:17:51;100318.03;;;8.80;100.00
71299;BME280;59083;47.974;21.722;2023-02-18T05:20:52;100315.75;;;8.77;100.00
71299;BME280;59083;47.974;21.722;2023-02-18T05:23:53;100316.25;;;8.72;100.00
71299;BME280;59083;47.974;21.722;2023-02-18T05:26:54;100319.75;;;8.73;100.00
71299;BME280;59083;47.974;21.722;2023-02-18T05:29:56;100312.59;;;8.73;100.00
71299;BME280;59083;47.974;21.722;2023-02-18T05:32:57;100313.09;;;8.77;100.00
71299;BME280;59083;47.974;21.722;2023-02-18T05:35:58;100322.06;;;8.76;100.00
71299;BME280;59083;47.974;21.722;2023-02-18T05:38:59;100326.56;;;8.75;100.00
71299;BME280;59083;47.974;21.722;2023-02-18T05:42:00;100323.34;;;8.80;100.00
71299;BME280;59083;47.974;21.722;2023-02-18T05:45:02;100325.84;;;8.81;100.00
71299;BME280;59083;47.974;21.722;2023-02-18T05:48:04;100332.81;;;8.82;100.00
71299;BME280;59083;47.974;21.722;2023-02-18T05:51:05;100340.41;;;8.85;100.00
71299;BME280;59083;47.974;21.722;2023-02-18T05:54:06;100357.84;;;8.88;100.00
71299;BME280;59083;47.974;21.722;2023-02-18T05:57:08;100389.09;;;8.86;100.00
71299;BME280;59083;47.974;21.722;2023-02-18T06:00:10;100415.81;;;8.84;100.00
71299;BME280;59083;47.974;21.722;2023-02-18T06:03:12;100431.72;;;8.92;100.00
71299;BME280;59083;47.974;21.722;2023-02-18T06:06:13;100441.22;;;8.87;100.00
71299;BME280;59083;47.974;21.722;2023-02-18T06:09:15;100445.59;;;8.80;100.00
71299;BME280;59083;47.974;21.722;2023-02-18T06:12:16;100446.28;;;8.74;100.00
71299;BME280;59083;47.974;21.722;2023-02-18T06:15:17;100450.28;;;8.69;100.00
71299;BME280;59083;47.974;21.722;2023-02-18T06:18:18;100453.94;;;8.68;100.00
71299;BME280;59083;47.974;21.722;2023-02-18T06:21:20;100459.56;;;8.74;100.00
71299;BME280;59083;47.974;21.722;2023-02-18T06:24:21;100456.22;;;8.80;100.00
71299;BME280;59083;47.974;21.722;2023-02-18T06:27:22;100452.56;;;8.81;100.00
71299;BME280;59083;47.974;21.722;2023-02-18T06:30:23;100452.88;;;8.78;100.00
71299;BME280;59083;47.974;21.722;2023-02-18T06:33:25;100440.50;;;8.70;100.00
71299;BME280;59083;47.974;21.722;2023-02-18T06:36:26;100436.19;;;8.61;100.00
71299;BME280;59083;47.974;21.722;2023-02-18T06:39:27;100447.19;;;8.58;100.00
71299;BME280;59083;47.974;21.722;2023-02-18T06:42:28;100450.00;;;8.56;100.00
71299;BME280;59083;47.974;21.722;2023-02-18T06:45:30;100456.16;;;8.57;100.00
71299;BME280;59083;47.974;21.722;2023-02-18T06:48:31;100459.94;;;8.62;100.00
71299;BME280;59083;47.974;21.722;2023-02-18T06:51:32;100471.72;;;8.68;100.00
71299;BME280;59083;47.974;21.722;2023-02-18T06:54:33;100466.06;;;8.71;100.00
71299;BME280;59083;47.974;21.722;2023-02-18T06:57:35;100470.72;;;8.69;100.00
71299;BME280;59083;47.974;21.722;2023-02-18T07:00:36;100478.16;;;8.74;100.00
71299;BME280;59083;47.974;21.722;2023-02-18T07:03:38;100473.81;;;8.81;100.00
71299;BME280;59083;47.974;21.722;2023-02-18T07:06:39;100473.81;;;8.81;100.00
71299;BME280;59083;47.974;21.722;2023-02-18T07:09:40;100474.16;;;8.78;100.00
71299;BME280;59083;47.974;21.722;2023-02-18T07:12:41;100473.81;;;8.81;100.00
71299;BME280;59083;47.974;21.722;2023-02-18T07:15:43;100475.62;;;8.88;100.00
71299;BME280;59083;47.974;21.722;2023-02-18T07:18:45;100488.22;;;8.86;100.00
71299;BME280;59083;47.974;21.722;2023-02-18T07:21:46;100484.44;;;8.81;100.00
71299;BME280;59083;47.974;21.722;2023-02-18T07:24:51;100490.75;;;8.80;100.00
71299;BME280;59083;47.974;21.722;2023-02-18T07:27:53;100489.44;;;8.76;100.00
71299;BME280;59083;47.974;21.722;2023-02-18T07:30:54;100488.56;;;8.83;100.00
71299;BME280;59083;47.974;21.722;2023-02-18T07:33:55;100487.87;;;8.89;100.00
71299;BME280;59083;47.974;21.722;2023-02-18T07:36:56;100495.81;;;8.97;100.00
71299;BME280;59083;47.974;21.722;2023-02-18T07:39:58;100495.94;;;9.04;100.00
71299;BME280;59083;47.974;21.722;2023-02-18T07:42:59;100485.78;;;9.07;100.00
71299;BME280;59083;47.974;21.722;2023-02-18T07:46:05;100481.91;;;9.18;100.00
71299;BME280;59083;47.974;21.722;2023-02-18T07:49:06;100486.75;;;9.37;100.00
71299;BME280;59083;47.974;21.722;2023-02-18T07:52:07;100481.88;;;9.49;100.00
71299;BME280;59083;47.974;21.722;2023-02-18T07:55:08;100477.84;;;9.53;99.95
71299;BME280;59083;47.974;21.722;2023-02-18T07:58:10;100480.50;;;9.53;100.00
71299;BME280;59083;47.974;21.722;2023-02-18T08:01:13;100480.50;;;9.53;100.00
71299;BME280;59083;47.974;21.722;2023-02-18T08:04:15;100474.56;;;9.66;99.55
71299;BME280;59083;47.974;21.722;2023-02-18T08:07:18;100471.94;;;9.80;98.49
71299;BME280;59083;47.974;21.722;2023-02-18T08:10:20;100473.81;;;9.94;98.11
71299;BME280;59083;47.974;21.722;2023-02-18T08:13:22;100477.31;;;10.10;98.00
71299;BME280;59083;47.974;21.722;2023-02-18T08:16:23;100472.88;;;10.25;97.18
71299;BME280;59083;47.974;21.722;2023-02-18T08:19:24;100476.19;;;10.42;95.92
71299;BME280;59083;47.974;21.722;2023-02-18T08:22:26;100472.69;;;10.56;94.47
71299;BME280;59083;47.974;21.722;2023-02-18T08:25:27;100488.47;;;10.72;93.81
71299;BME280;59083;47.974;21.722;2023-02-18T08:28:28;100480.38;;;10.80;92.28
71299;BME280;59083;47.974;21.722;2023-02-18T08:31:30;100471.78;;;10.99;91.93
71299;BME280;59083;47.974;21.722;2023-02-18T08:34:31;100479.56;;;11.15;90.63
71299;BME280;59083;47.974;21.722;2023-02-18T08:37:32;100475.66;;;11.33;90.01
71299;BME280;59083;47.974;21.722;2023-02-18T08:40:34;100473.47;;;11.43;89.18
71299;BME280;59083;47.974;21.722;2023-02-18T08:43:36;100479.19;;;11.61;87.83
71299;BME280;59083;47.974;21.722;2023-02-18T08:46:37;100477.22;;;11.70;87.04
71299;BME280;59083;47.974;21.722;2023-02-18T08:49:38;100483.47;;;11.77;86.51
71299;BME280;59083;47.974;21.722;2023-02-18T08:52:39;100489.25;;;11.80;85.91
71299;BME280;59083;47.974;21.722;2023-02-18T08:55:41;100490.00;;;11.74;85.29
71299;BME280;59083;47.974;21.722;2023-02-18T08:58:42;100481.09;;;11.88;85.98
71299;BME280;59083;47.974;21.722;2023-02-18T09:01:43;100482.47;;;12.06;84.46
71299;BME280;59083;47.974;21.722;2023-02-18T09:04:45;100473.81;;;12.04;83.67
71299;BME280;59083;47.974;21.722;2023-02-18T09:07:46;100473.91;;;12.17;82.39
71299;BME280;59083;47.974;21.722;2023-02-18T09:10:47;100477.84;;;12.21;81.97
71299;BME280;59083;47.974;21.722;2023-02-18T09:13:48;100472.31;;;12.22;81.86
71299;BME280;59083;47.974;21.722;2023-02-18T09:16:50;100470.66;;;12.21;81.39
71299;BME280;59083;47.974;21.722;2023-02-18T09:19:51;100474.78;;;12.24;79.78
71299;BME280;59083;47.974;21.722;2023-02-18T09:22:52;100470.28;;;12.31;77.68
71299;BME280;59083;47.974;21.722;2023-02-18T09:25:53;100485.06;;;12.27;77.25
71299;BME280;59083;47.974;21.722;2023-02-18T09:28:56;100487.09;;;12.53;76.68
71299;BME280;59083;47.974;21.722;2023-02-18T09:32:00;100491.19;;;12.55;76.73
71299;BME280;59083;47.974;21.722;2023-02-18T09:35:03;100498.84;;;12.65;75.55
71299;BME280;59083;47.974;21.722;2023-02-18T09:38:06;100490.19;;;12.56;76.24
71299;BME280;59083;47.974;21.722;2023-02-18T09:44:40;100506.75;;;12.79;75.42
71299;BME280;59083;47.974;21.722;2023-02-18T09:47:43;100492.84;;;12.97;74.54
71299;BME280;59083;47.974;21.722;2023-02-18T09:50:48;100501.09;;;13.02;73.97
71299;BME280;59083;47.974;21.722;2023-02-18T09:53:52;100494.47;;;12.92;74.85
71299;BME280;59083;47.974;21.722;2023-02-18T09:56:53;100497.75;;;12.94;74.76
71299;BME280;59083;47.974;21.722;2023-02-18T10:00:00;100495.06;;;12.94;74.41
71299;BME280;59083;47.974;21.722;2023-02-18T10:03:17;100508.22;;;12.89;74.48
71299;BME280;59083;47.974;21.722;2023-02-18T10:06:25;100482.91;;;12.84;75.45
71299;BME280;59083;47.974;21.722;2023-02-18T10:09:37;100511.28;;;12.79;75.12
71299;BME280;59083;47.974;21.722;2023-02-18T10:12:38;100496.84;;;12.73;75.14
71299;BME280;59083;47.974;21.722;2023-02-18T10:15:41;100471.97;;;12.73;75.84
71299;BME280;59083;47.974;21.722;2023-02-18T10:18:45;100500.09;;;12.62;75.80
71299;BME280;59083;47.974;21.722;2023-02-18T10:21:50;100472.91;;;12.52;76.35
71299;BME280;59083;47.974;21.722;2023-02-18T10:24:55;100478.00;;;12.47;77.59
71299;BME280;59083;47.974;21.722;2023-02-18T10:27:57;100461.38;;;12.52;76.91
71299;BME280;59083;47.974;21.722;2023-02-18T10:31:04;100478.66;;;12.56;77.57
71299;BME280;59083;47.974;21.722;2023-02-18T10:47:28;100438.91;;;12.87;77.23
71299;BME280;59083;47.974;21.722;2023-02-18T10:50:37;100447.97;;;12.93;76.60
71299;BME280;59083;47.974;21.722;2023-02-18T10:53:41;100428.66;;;13.04;75.88
71299;BME280;59083;47.974;21.722;2023-02-18T10:56:48;100429.91;;;13.08;76.21
71299;BME280;59083;47.974;21.722;2023-02-18T11:03:21;100415.47;;;12.96;75.31
71299;BME280;59083;47.974;21.722;2023-02-18T11:06:41;100429.12;;;13.14;74.65
71299;BME280;59083;47.974;21.722;2023-02-18T11:10:12;100421.44;;;13.11;74.72
71299;BME280;59083;47.974;21.722;2023-02-18T11:13:26;100428.09;;;13.21;74.05
71299;BME280;59083;47.974;21.722;2023-02-18T11:16:40;100423.78;;;13.27;73.47
71299;BME280;59083;47.974;21.722;2023-02-18T11:19:42;100424.63;;;13.21;74.39
71299;BME280;59083;47.974;21.722;2023-02-18T11:22:44;100426.66;;;13.19;73.89
71299;BME280;59083;47.974;21.722;2023-02-18T11:29:00;100429.53;;;13.24;73.80
71299;BME280;59083;47.974;21.722;2023-02-18T11:32:03;100429.12;;;13.14;73.80
71299;BME280;59083;47.974;21.722;2023-02-18T11:35:23;100428.19;;;12.94;74.27
71299;BME280;59083;47.974;21.722;2023-02-18T11:38:28;100431.50;;;12.96;74.73
71299;BME280;59083;47.974;21.722;2023-02-18T11:41:38;100433.13;;;12.83;75.69
71299;BME280;59083;47.974;21.722;2023-02-18T11:44:47;100426.56;;;12.93;74.60
71299;BME280;59083;47.974;21.722;2023-02-18T11:47:58;100424.94;;;12.92;75.26
71299;BME280;59083;47.974;21.722;2023-02-18T11:51:00;100404.69;;;12.69;75.51
71299;BME280;59083;47.974;21.722;2023-02-18T11:54:05;100410.47;;;12.79;75.64
71299;BME280;59083;47.974;21.722;2023-02-18T11:57:21;100423.63;;;12.74;75.62
71299;BME280;59083;47.974;21.722;2023-02-18T12:00:42;100395.44;;;12.72;75.50
71299;BME280;59083;47.974;21.722;2023-02-18T12:03:49;100404.47;;;12.64;76.08
71299;BME280;59083;47.974;21.722;2023-02-18T12:07:16;100389.47;;;12.76;74.87
71299;BME280;59083;47.974;21.722;2023-02-18T12:13:32;100376.31;;;12.68;75.74
71299;BME280;59083;47.974;21.722;2023-02-18T12:20:23;100367.44;;;12.61;75.65
71299;BME280;59083;47.974;21.722;2023-02-18T12:23:40;100367.62;;;12.60;75.62
71299;BME280;59083;47.974;21.722;2023-02-18T12:26:58;100356.09;;;12.59;75.21
71299;BME280;59083;47.974;21.722;2023-02-18T12:36:46;100333.09;;;12.71;75.73
71299;BME280;59083;47.974;21.722;2023-02-18T13:09:31;100326.56;;;12.94;70.81
71299;BME280;59083;47.974;21.722;2023-02-18T13:13:07;100310.09;;;12.97;69.84
71299;BME280;59083;47.974;21.722;2023-02-18T13:16:14;100311.53;;;12.99;69.71
71299;BME280;59083;47.974;21.722;2023-02-18T13:22:30;100310.50;;;12.80;71.26
71299;BME280;59083;47.974;21.722;2023-02-18T13:25:36;100310.50;;;12.80;71.41
71299;BME280;59083;47.974;21.722;2023-02-18T13:28:43;100313.78;;;12.69;72.06
71299;BME280;59083;47.974;21.722;2023-02-18T13:31:57;100308.00;;;12.72;72.69
71299;BME280;59083;47.974;21.722;2023-02-18T13:41:19;100307.16;;;12.52;75.11
71299;BME280;59083;47.974;21.722;2023-02-18T13:47:43;100307.34;;;12.44;76.63
71299;BME280;59083;47.974;21.722;2023-02-18T13:50:44;100298.09;;;12.47;76.75
71299;BME280;59083;47.974;21.722;2023-02-18T13:53:50;100305.50;;;12.51;77.04
71299;BME280;59083;47.974;21.722;2023-02-18T13:56:57;100303.03;;;12.50;78.44
71299;BME280;59083;47.974;21.722;2023-02-18T14:00:05;100296.47;;;12.52;78.97
71299;BME280;59083;47.974;21.722;2023-02-18T14:03:30;100289.06;;;12.54;79.50
71299;BME280;59083;47.974;21.722;2023-02-18T14:06:34;100289.50;;;12.58;79.56
71299;BME280;59083;47.974;21.722;2023-02-18T14:09:40;100292.34;;;12.56;80.04
71299;BME280;59083;47.974;21.722;2023-02-18T14:13:00;100282.66;;;12.49;80.74
71299;BME280;59083;47.974;21.722;2023-02-18T14:16:03;100283.28;;;12.44;80.73
71299;BME280;59083;47.974;21.722;2023-02-18T14:19:26;100280.78;;;12.42;81.32
71299;BME280;59083;47.974;21.722;2023-02-18T14:22:31;100270.09;;;12.42;81.54
71299;BME280;59083;47.974;21.722;2023-02-18T14:25:36;100262.72;;;12.45;81.77
71299;BME280;59083;47.974;21.722;2023-02-18T14:28:51;100270.53;;;12.46;81.92
71299;BME280;59083;47.974;21.722;2023-02-18T14:32:09;100260.25;;;12.43;82.34
71299;BME280;59083;47.974;21.722;2023-02-18T14:35:35;100258.59;;;12.42;82.62
71299;BME280;59083;47.974;21.722;2023-02-18T14:38:47;100246.28;;;12.41;82.51
71299;BME280;59083;47.974;21.722;2023-02-18T14:42:00;100241.75;;;12.35;82.08
71299;BME280;59083;47.974;21.722;2023-02-18T14:51:23;100235.94;;;12.25;81.79
71299;BME280;59083;47.974;21.722;2023-02-18T14:54:26;100241.06;;;12.20;82.18
71299;BME280;59083;47.974;21.722;2023-02-18T14:57:38;100237.37;;;12.21;81.94
71299;BME280;59083;47.974;21.722;2023-02-18T15:00:41;100240.87;;;12.21;81.82
71299;BME280;59083;47.974;21.722;2023-02-18T15:03:43;100248.88;;;12.21;81.79
71299;BME280;59083;47.974;21.722;2023-02-18T15:06:44;100239.44;;;12.19;81.96
71299;BME280;59083;47.974;21.722;2023-02-18T15:09:52;100233.87;;;12.20;81.73
71299;BME280;59083;47.974;21.722;2023-02-18T15:12:54;100231.00;;;12.15;82.25
71299;BME280;59083;47.974;21.722;2023-02-18T15:15:58;100236.53;;;12.14;82.24
71299;BME280;59083;47.974;21.722;2023-02-18T15:19:05;100218.62;;;12.08;82.40
71299;BME280;59083;47.974;21.722;2023-02-18T15:22:15;100210.41;;;12.02;82.86
71299;BME280;59083;47.974;21.722;2023-02-18T15:25:18;100209.56;;;11.95;83.30
71299;BME280;59083;47.974;21.722;2023-02-18T15:28:28;100210.37;;;11.89;83.75
71299;BME280;59083;47.974;21.722;2023-02-18T15:31:35;100216.09;;;11.86;84.30
71299;BME280;59083;47.974;21.722;2023-02-18T15:34:38;100215.88;;;11.81;84.39
71299;BME280;59083;47.974;21.722;2023-02-18T15:37:43;100210.72;;;11.80;84.55
71299;BME280;59083;47.974;21.722;2023-02-18T15:40:52;100203.53;;;11.80;84.49
71299;BME280;59083;47.974;21.722;2023-02-18T15:43:59;100192.03;;;11.73;84.85
71299;BME280;59083;47.974;21.722;2023-02-18T15:47:05;100182.72;;;11.69;85.09
71299;BME280;59083;47.974;21.722;2023-02-18T15:53:41;100190.09;;;11.60;85.71
71299;BME280;59083;47.974;21.722;2023-02-18T15:56:45;100183.72;;;11.55;86.10
71299;BME280;59083;47.974;21.722;2023-02-18T15:59:56;100181.22;;;11.53;86.18
71299;BME280;59083;47.974;21.722;2023-02-18T16:09:25;100177.66;;;11.40;87.41
71299;BME280;59083;47.974;21.722;2023-02-18T16:12:30;100172.34;;;11.40;87.90
71299;BME280;59083;47.974;21.722;2023-02-18T16:15:38;100168.66;;;11.41;88.24
71299;BME280;59083;47.974;21.722;2023-02-18T16:18:41;100175.63;;;11.42;88.64
71299;BME280;59083;47.974;21.722;2023-02-18T16:21:45;100164.16;;;11.48;88.39
71299;BME280;59083;47.974;21.722;2023-02-18T16:24:48;100156.34;;;11.46;88.75
71299;BME280;59083;47.974;21.722;2023-02-18T16:28:03;100155.97;;;11.49;89.17
71299;BME280;59083;47.974;21.722;2023-02-18T16:31:05;100145.72;;;11.53;89.22
71299;BME280;59083;47.974;21.722;2023-02-18T16:34:06;100155.53;;;11.46;89.50
71299;BME280;59083;47.974;21.722;2023-02-18T16:37:08;100151.44;;;11.43;90.16
71299;BME280;59083;47.974;21.722;2023-02-18T16:40:33;100146.28;;;11.42;90.84
71299;BME280;59083;47.974;21.722;2023-02-18T16:43:35;100144.81;;;11.33;91.86
71299;BME280;59083;47.974;21.722;2023-02-18T16:46:36;100145.19;;;11.30;91.94
71299;BME280;59083;47.974;21.722;2023-02-18T16:49:38;100139.25;;;11.28;92.50
71299;BME280;59083;47.974;21.722;2023-02-18T16:52:40;100142.94;;;11.27;92.83
71299;BME280;59083;47.974;21.722;2023-02-18T16:55:41;100132.06;;;11.28;92.67
71299;BME280;59083;47.974;21.722;2023-02-18T16:58:42;100127.94;;;11.26;92.70
71299;BME280;59083;47.974;21.722;2023-02-18T17:01:44;100133.66;;;11.23;92.91
71299;BME280;59083;47.974;21.722;2023-02-18T17:04:46;100136.75;;;11.19;92.90
71299;BME280;59083;47.974;21.722;2023-02-18T17:07:47;100153.38;;;11.22;93.11
71299;BME280;59083;47.974;21.722;2023-02-18T17:10:59;100141.87;;;11.21;93.37
71299;BME280;59083;47.974;21.722;2023-02-18T17:14:00;100140.19;;;11.13;93.85
71299;BME280;59083;47.974;21.722;2023-02-18T17:17:07;100140.34;;;11.05;94.49
71299;BME280;59083;47.974;21.722;2023-02-18T17:20:09;100135.41;;;11.02;95.01
71299;BME280;59083;47.974;21.722;2023-02-18T17:23:18;100128.28;;;11.09;94.33
71299;BME280;59083;47.974;21.722;2023-02-18T17:26:24;100131.97;;;11.08;94.34
71299;BME280;59083;47.974;21.722;2023-02-18T17:29:25;100130.72;;;11.11;94.49
71299;BME280;59083;47.974;21.722;2023-02-18T17:32:26;100141.38;;;11.04;94.90
71299;BME280;59083;47.974;21.722;2023-02-18T17:35:29;100130.31;;;11.07;94.43
71299;BME280;59083;47.974;21.722;2023-02-18T17:38:31;100126.62;;;11.08;94.26
71299;BME280;59083;47.974;21.722;2023-02-18T17:41:32;100112.69;;;11.13;93.75
71299;BME280;59083;47.974;21.722;2023-02-18T17:44:38;100098.34;;;11.14;93.53
71299;BME280;59083;47.974;21.722;2023-02-18T17:47:40;100090.38;;;11.21;93.09
71299;BME280;59083;47.974;21.722;2023-02-18T17:50:41;100101.66;;;11.23;92.88
71299;BME280;59083;47.974;21.722;2023-02-18T17:53:42;100085.66;;;11.23;92.71
71299;BME280;59083;47.974;21.722;2023-02-18T17:56:44;100075.81;;;11.23;92.71
71299;BME280;59083;47.974;21.722;2023-02-18T17:59:46;100086.47;;;11.23;92.84
71299;BME280;59083;47.974;21.722;2023-02-18T18:02:47;100078.28;;;11.25;92.96
71299;BME280;59083;47.974;21.722;2023-02-18T18:05:50;100082.78;;;11.24;93.15
71299;BME280;59083;47.974;21.722;2023-02-18T18:08:56;100069.25;;;11.26;93.02